createdAt,value
2023-05-10T00:01:33.824Z,12.39
2023-05-10T00:04:36.267Z,12.38
2023-05-10T00:07:41.832Z,12.19
2023-05-10T00:10:44.166Z,12.30
2023-05-10T00:13:46.638Z,12.20
2023-05-10T00:16:49.209Z,12.29
2023-05-10T00:19:52.780Z,12.27
2023-05-10T00:22:55.029Z,12.21
2023-05-10T00:25:57.416Z,12.13
2023-05-10T00:28:59.768Z,12.12
2023-05-10T00:32:02.120Z,12.07
2023-05-10T00:35:04.810Z,12.02
2023-05-10T00:38:07.897Z,11.84
2023-05-10T00:41:10.162Z,11.90
2023-05-10T00:44:14.757Z,11.83
2023-05-10T00:47:18.048Z,11.79
2023-05-10T00:50:20.454Z,11.80
2023-05-10T00:53:23.017Z,11.91
2023-05-10T00:56:26.604Z,11.82
2023-05-10T00:59:29.830Z,11.67
2023-05-10T01:02:32.172Z,11.59
2023-05-10T01:05:34.455Z,11.53
2023-05-10T01:08:37.577Z,11.43
2023-05-10T01:11:41.174Z,11.39
2023-05-10T01:14:44.151Z,11.50
2023-05-10T01:17:48.492Z,11.39
2023-05-10T01:21:05.746Z,11.40
2023-05-10T01:24:23.210Z,11.43
2023-05-10T01:28:02.747Z,11.52
2023-05-10T01:31:19.463Z,11.43
2023-05-10T01:34:26.667Z,11.49
2023-05-10T01:37:38.536Z,11.74
2023-05-10T01:41:10.086Z,11.76
2023-05-10T01:44:15.393Z,11.62
2023-05-10T01:47:36.045Z,11.70
2023-05-10T01:50:44.842Z,11.52
2023-05-10T01:53:49.829Z,11.60
2023-05-10T01:57:06.645Z,11.51
2023-05-10T02:00:10.581Z,11.59
2023-05-10T02:03:21.686Z,11.66
2023-05-10T02:06:26.234Z,11.64
2023-05-10T02:09:31.830Z,11.71
2023-05-10T02:12:39.150Z,11.72
2023-05-10T02:15:42.686Z,11.86
2023-05-10T02:18:45.839Z,11.82
2023-05-10T02:21:48.941Z,11.78
2023-05-10T02:24:52.083Z,11.87
2023-05-10T02:27:57.879Z,11.83
2023-05-10T02:31:00.844Z,11.87
2023-05-10T02:34:05.158Z,11.96
2023-05-10T02:37:08.146Z,11.93
2023-05-10T02:40:12.614Z,12.02
2023-05-10T02:43:19.553Z,12.05
2023-05-10T02:46:22.037Z,12.06
2023-05-10T02:49:24.396Z,11.97
2023-05-10T02:52:37.557Z,12.09
2023-05-10T02:55:43.134Z,12.13
2023-05-10T02:58:45.407Z,12.11
2023-05-10T03:01:47.976Z,12.05
2023-05-10T03:04:50.665Z,12.02
2023-05-10T03:07:53.676Z,12.11
2023-05-10T03:11:28.030Z,12.01
2023-05-10T03:14:42.512Z,12.14
2023-05-10T03:17:44.727Z,12.09
2023-05-10T03:20:56.595Z,11.99
2023-05-10T03:24:06.446Z,11.84
2023-05-10T03:27:09.668Z,11.81
2023-05-10T03:30:13.715Z,11.87
2023-05-10T03:33:16.289Z,11.81
2023-05-10T03:36:21.563Z,11.72
2023-05-10T03:39:24.146Z,11.65
2023-05-10T03:42:30.550Z,11.78
2023-05-10T03:45:32.942Z,11.70
2023-05-10T03:48:35.947Z,11.75
2023-05-10T03:51:38.257Z,11.87
2023-05-10T03:54:40.594Z,11.77
2023-05-10T03:57:43.456Z,11.69
2023-05-10T04:00:46.509Z,11.69
2023-05-10T04:03:50.318Z,11.59
2023-05-10T04:06:52.685Z,11.56
2023-05-10T04:09:55.455Z,11.68
2023-05-10T04:12:58.578Z,11.66
2023-05-10T04:16:01.207Z,11.69
2023-05-10T04:19:03.812Z,11.70
2023-05-10T04:22:06.279Z,11.68
2023-05-10T04:25:09.182Z,11.63
2023-05-10T04:28:11.391Z,11.62
2023-05-10T04:31:13.873Z,11.75
2023-05-10T04:34:16.171Z,12.10
2023-05-10T04:37:19.186Z,12.10
2023-05-10T04:40:21.772Z,12.04
2023-05-10T04:43:24.048Z,11.92
2023-05-10T04:46:26.356Z,11.91
2023-05-10T04:49:29.109Z,11.83
2023-05-10T04:52:31.634Z,11.70
2023-05-10T04:55:33.945Z,12.17
2023-05-10T04:58:36.296Z,13.24
2023-05-10T05:01:38.649Z,13.71
2023-05-10T05:04:40.942Z,13.75
2023-05-10T05:07:43.264Z,13.63
2023-05-10T05:10:45.586Z,13.78
2023-05-10T05:13:48.083Z,14.01
2023-05-10T05:16:50.403Z,13.97
2023-05-10T05:19:52.739Z,14.40
2023-05-10T05:22:54.994Z,14.45
2023-05-10T05:25:57.400Z,13.95
2023-05-10T05:28:59.727Z,13.20
2023-05-10T05:32:02.452Z,13.29
2023-05-10T05:35:05.609Z,13.20
2023-05-10T05:38:07.933Z,13.55
2023-05-10T05:41:10.297Z,14.59
2023-05-10T05:44:12.618Z,16.06
2023-05-10T05:47:15.066Z,15.00
2023-05-10T05:50:17.427Z,15.67
2023-05-10T05:53:19.696Z,15.72
2023-05-10T05:56:25.414Z,17.06
2023-05-10T05:59:28.219Z,15.79
2023-05-10T06:02:30.702Z,15.64
2023-05-10T06:05:33.394Z,15.30
2023-05-10T06:08:35.746Z,14.82
2023-05-10T06:11:38.311Z,16.13
2023-05-10T06:14:40.583Z,15.82
2023-05-10T06:17:44.421Z,16.19
2023-05-10T06:20:46.707Z,15.34
2023-05-10T06:23:49.357Z,17.08
2023-05-10T06:26:52.183Z,17.65
2023-05-10T06:30:02.121Z,16.89
2023-05-10T06:33:12.091Z,17.71
2023-05-10T06:36:14.472Z,21.29
2023-05-10T06:39:17.102Z,16.69
2023-05-10T06:42:19.383Z,15.44
2023-05-10T06:45:22.956Z,15.02
2023-05-10T06:48:25.195Z,14.84
2023-05-10T06:51:27.714Z,15.00
2023-05-10T06:54:30.063Z,19.17
2023-05-10T06:57:33.297Z,18.19
2023-05-10T07:00:35.772Z,21.35
2023-05-10T07:03:38.102Z,17.49
2023-05-10T07:06:40.586Z,18.97
2023-05-10T07:09:45.353Z,17.90
2023-05-10T07:12:47.937Z,17.36
2023-05-10T07:15:53.218Z,18.85
2023-05-10T07:18:55.636Z,17.36
2023-05-10T07:21:58.080Z,16.53
2023-05-10T07:25:00.936Z,16.29
2023-05-10T07:28:03.219Z,16.54
2023-05-10T07:31:05.546Z,19.12
2023-05-10T07:34:07.904Z,19.50
2023-05-10T07:37:10.264Z,21.89
2023-05-10T07:40:12.693Z,22.65
2023-05-10T07:43:17.963Z,19.57
2023-05-10T07:46:20.809Z,18.00
2023-05-10T07:49:25.237Z,17.11
2023-05-10T07:52:27.514Z,16.57
2023-05-10T07:55:29.795Z,16.41
2023-05-10T07:58:32.666Z,17.30
2023-05-10T08:01:35.970Z,18.24
2023-05-10T08:04:38.400Z,18.72
2023-05-10T08:07:41.384Z,17.89
2023-05-10T08:10:43.871Z,16.32
2023-05-10T08:13:46.761Z,16.24
2023-05-10T08:16:49.101Z,18.01
2023-05-10T08:19:51.419Z,17.47
2023-05-10T08:22:59.245Z,17.63
2023-05-10T08:26:01.726Z,17.58
2023-05-10T08:29:04.097Z,18.22
2023-05-10T08:32:06.464Z,16.61
2023-05-10T08:35:08.799Z,16.54
2023-05-10T08:38:11.237Z,16.58
2023-05-10T08:41:14.524Z,17.70
2023-05-10T08:44:17.726Z,17.64
2023-05-10T08:47:23.256Z,17.21
2023-05-10T08:50:26.589Z,18.73
2023-05-10T08:53:36.456Z,19.33
2023-05-10T08:56:38.794Z,17.78
2023-05-10T08:59:41.177Z,17.53
2023-05-10T09:02:45.298Z,18.43
2023-05-10T09:05:48.038Z,17.88
2023-05-10T09:08:51.241Z,19.26
2023-05-10T09:11:54.896Z,18.99
2023-05-10T09:15:02.944Z,17.73
2023-05-10T09:18:06.176Z,17.03
2023-05-10T09:21:09.453Z,16.89
2023-05-10T09:24:13.033Z,17.45
2023-05-10T09:27:15.401Z,18.51
2023-05-10T09:30:29.178Z,18.77
2023-05-10T09:33:45.627Z,20.40
2023-05-10T09:36:55.832Z,20.20
2023-05-10T09:39:58.122Z,18.05
2023-05-10T09:43:11.893Z,18.40
2023-05-10T09:46:14.907Z,18.65
2023-05-10T09:49:17.341Z,17.92
2023-05-10T09:52:19.679Z,17.50
2023-05-10T09:55:24.647Z,17.43
2023-05-10T09:58:27.256Z,18.75
2023-05-10T10:01:30.637Z,19.85
2023-05-10T10:04:33.862Z,18.94
2023-05-10T10:07:36.912Z,18.11
2023-05-10T10:10:42.568Z,17.66
2023-05-10T10:13:45.216Z,17.74
2023-05-10T10:16:59.859Z,17.99
2023-05-10T10:20:12.318Z,17.85
2023-05-10T10:23:17.365Z,18.28
2023-05-10T10:26:20.965Z,17.33
2023-05-10T10:29:37.935Z,17.54
2023-05-10T10:33:20.212Z,18.79
2023-05-10T10:36:29.612Z,18.32
2023-05-10T10:39:32.299Z,18.00
2023-05-10T10:42:52.657Z,17.61
2023-05-10T10:46:18.437Z,17.52
2023-05-10T10:49:22.328Z,17.59
2023-05-10T10:52:34.058Z,17.46
2023-05-10T10:55:49.464Z,17.89
2023-05-10T10:58:53.573Z,17.80
2023-05-10T11:01:55.810Z,17.94
2023-05-10T11:04:58.068Z,17.95
2023-05-10T11:08:01.792Z,18.33
2023-05-10T11:11:09.203Z,18.77
2023-05-10T11:14:11.521Z,18.90
2023-05-10T11:17:28.124Z,19.97
2023-05-10T11:20:40.129Z,21.72
2023-05-10T11:23:59.137Z,19.52
2023-05-10T11:27:01.996Z,19.62
2023-05-10T11:30:07.650Z,19.56
2023-05-10T11:33:10.988Z,19.68
2023-05-10T11:36:27.572Z,19.84
2023-05-10T11:39:31.593Z,19.57
2023-05-10T11:42:34.632Z,20.09
2023-05-10T11:45:37.005Z,21.72
2023-05-10T11:48:43.960Z,20.46
2023-05-10T11:51:46.893Z,19.34
2023-05-10T11:54:54.462Z,19.60
2023-05-10T11:58:02.225Z,19.85
2023-05-10T12:01:06.714Z,18.97
2023-05-10T12:04:09.240Z,18.87
2023-05-10T12:07:11.741Z,18.73
2023-05-10T12:10:20.758Z,18.99
2023-05-10T12:13:26.269Z,19.03
2023-05-10T12:16:30.388Z,19.04
2023-05-10T12:19:40.233Z,19.12
2023-05-10T12:22:50.477Z,19.14
2023-05-10T12:25:55.005Z,19.01
2023-05-10T12:29:18.124Z,18.90
2023-05-10T12:32:20.531Z,18.89
2023-05-10T12:35:24.997Z,19.10
2023-05-10T12:38:34.176Z,19.18
2023-05-10T12:41:36.846Z,19.23
2023-05-10T12:44:47.503Z,19.12
2023-05-10T12:47:49.935Z,18.82
2023-05-10T12:50:52.253Z,18.68
2023-05-10T12:57:42.262Z,19.05
2023-05-10T13:00:44.952Z,18.64
2023-05-10T13:03:47.568Z,18.82
2023-05-10T13:06:49.919Z,18.95
2023-05-10T13:09:52.221Z,18.75
2023-05-10T13:12:54.458Z,19.11
2023-05-10T13:15:56.734Z,19.20
2023-05-10T13:18:59.668Z,18.86
2023-05-10T13:22:02.247Z,19.07
2023-05-10T13:25:04.904Z,19.70
2023-05-10T13:28:07.317Z,19.83
2023-05-10T13:31:09.906Z,19.69
2023-05-10T13:34:12.599Z,19.65
2023-05-10T13:37:15.317Z,19.55
2023-05-10T13:40:17.922Z,18.82
2023-05-10T13:43:33.089Z,18.75
2023-05-10T13:46:39.887Z,18.50
2023-05-10T13:49:42.368Z,18.93
2023-05-10T13:52:45.086Z,19.26
2023-05-10T13:55:48.286Z,19.30
2023-05-10T13:58:50.525Z,19.47
2023-05-10T14:01:53.210Z,19.65
2023-05-10T14:04:55.579Z,19.84
2023-05-10T14:07:58.202Z,19.63
2023-05-10T14:11:00.626Z,19.91
2023-05-10T14:14:03.589Z,19.64
2023-05-10T14:17:06.472Z,19.34
2023-05-10T14:20:09.587Z,19.06
2023-05-10T14:23:12.389Z,19.00
2023-05-10T14:26:15.705Z,19.16
2023-05-10T14:29:18.560Z,19.48
2023-05-10T14:32:21.051Z,19.26
2023-05-10T14:35:23.522Z,19.23
2023-05-10T14:38:26.012Z,19.14
2023-05-10T14:41:28.783Z,19.03
2023-05-10T14:44:31.692Z,18.84
2023-05-10T14:47:34.511Z,18.52
2023-05-10T14:50:37.526Z,18.68
2023-05-10T14:53:40.048Z,18.89
2023-05-10T14:56:42.844Z,18.71
2023-05-10T14:59:45.179Z,18.58
2023-05-10T15:02:49.725Z,18.78
2023-05-10T15:05:54.234Z,18.91
2023-05-10T15:08:56.701Z,18.92
2023-05-10T15:11:59.060Z,18.70
2023-05-10T15:15:01.355Z,18.53
2023-05-10T15:18:03.740Z,18.30
2023-05-10T15:21:06.056Z,18.26
2023-05-10T15:24:08.992Z,18.06
2023-05-10T15:27:11.221Z,17.96
2023-05-10T15:30:13.720Z,17.95
2023-05-10T15:33:16.096Z,18.05
2023-05-10T15:36:19.063Z,18.06
2023-05-10T15:39:21.342Z,18.07
2023-05-10T15:42:23.716Z,18.16
2023-05-10T15:45:26.102Z,18.07
2023-05-10T15:48:28.460Z,17.95
2023-05-10T15:51:30.827Z,17.92
2023-05-10T15:54:33.104Z,18.02
2023-05-10T15:57:36.747Z,17.98
2023-05-10T16:00:39.221Z,18.17
2023-05-10T16:03:41.775Z,18.15
2023-05-10T16:06:44.260Z,18.15
2023-05-10T16:09:46.692Z,18.19
2023-05-10T16:12:49.090Z,18.22
2023-05-10T16:15:51.425Z,18.26
2023-05-10T16:18:54.019Z,18.19
2023-05-10T16:21:56.519Z,18.20
2023-05-10T16:24:59.231Z,18.11
2023-05-10T16:28:01.766Z,18.03
2023-05-10T16:31:04.098Z,17.94
2023-05-10T16:34:06.330Z,18.06
2023-05-10T16:37:08.594Z,18.14
2023-05-10T16:40:11.317Z,18.03
2023-05-10T16:43:13.586Z,17.92
2023-05-10T16:46:16.309Z,17.88
2023-05-10T16:49:18.581Z,17.81
2023-05-10T16:52:20.998Z,17.76
2023-05-10T16:55:25.523Z,17.73
2023-05-10T16:58:28.664Z,17.80
2023-05-10T17:01:30.877Z,17.71
2023-05-10T17:04:33.144Z,17.63
2023-05-10T17:07:35.405Z,17.58
2023-05-10T17:10:41.002Z,17.50
2023-05-10T17:13:43.286Z,17.48
2023-05-10T17:16:45.677Z,17.42
2023-05-10T17:19:47.981Z,17.34
2023-05-10T17:22:50.440Z,17.32
2023-05-10T17:25:53.727Z,17.33
2023-05-10T17:28:56.135Z,17.28
2023-05-10T17:31:59.167Z,17.18
2023-05-10T17:35:03.787Z,17.12
2023-05-10T17:38:06.222Z,17.03
2023-05-10T17:41:08.495Z,17.00
2023-05-10T17:44:10.748Z,16.85
2023-05-10T17:47:13.049Z,16.73
2023-05-10T17:50:15.773Z,16.72
2023-05-10T17:53:18.400Z,16.68
2023-05-10T17:56:22.359Z,16.64
2023-05-10T17:59:24.688Z,16.50
2023-05-10T18:02:27.225Z,16.33
2023-05-10T18:05:29.862Z,16.20
2023-05-10T18:08:33.221Z,16.14
2023-05-10T18:11:36.303Z,16.15
2023-05-10T18:14:41.673Z,15.93
2023-05-10T18:17:44.253Z,15.92
2023-05-10T18:20:46.911Z,15.81
2023-05-10T18:23:49.181Z,15.88
2023-05-10T18:26:51.562Z,15.83
2023-05-10T18:29:54.012Z,15.73
2023-05-10T18:32:57.552Z,15.59
2023-05-10T18:36:00.925Z,15.57
2023-05-10T18:39:03.425Z,15.54
2023-05-10T18:42:06.189Z,15.57
2023-05-10T18:45:08.971Z,15.54
2023-05-10T18:48:11.401Z,15.52
2023-05-10T18:51:14.884Z,15.41
2023-05-10T18:54:17.358Z,15.34
2023-05-10T18:57:21.225Z,15.44
2023-05-10T19:00:24.057Z,15.40
2023-05-10T19:03:26.934Z,15.46
2023-05-10T19:06:29.311Z,15.48
2023-05-10T19:09:32.278Z,15.47
2023-05-10T19:12:34.985Z,15.38
2023-05-10T19:15:37.416Z,15.35
2023-05-10T19:18:40.134Z,15.39
2023-05-10T19:21:42.511Z,15.38
2023-05-10T19:24:46.321Z,15.38
2023-05-10T19:27:48.968Z,15.28
2023-05-10T19:30:51.293Z,15.21
2023-05-10T19:33:54.004Z,15.15
2023-05-10T19:36:58.854Z,15.14
2023-05-10T19:40:01.335Z,15.08
2023-05-10T19:43:04.273Z,15.03
2023-05-10T19:46:06.810Z,15.08
2023-05-10T19:49:09.196Z,15.03
2023-05-10T19:52:12.370Z,15.12
2023-05-10T19:55:25.187Z,15.06
2023-05-10T19:58:28.934Z,14.99
2023-05-10T20:01:32.968Z,14.99
2023-05-10T20:04:35.471Z,15.00
2023-05-10T20:07:37.681Z,15.07
2023-05-10T20:10:40.068Z,15.02
2023-05-10T20:13:42.371Z,14.95
2023-05-10T20:16:44.763Z,14.83
2023-05-10T20:19:47.272Z,14.83
2023-05-10T20:22:50.175Z,14.81
2023-05-10T20:25:54.987Z,14.97
2023-05-10T20:28:57.542Z,14.91
2023-05-10T20:32:00.020Z,14.86
2023-05-10T20:35:02.818Z,14.83
2023-05-10T20:38:05.844Z,14.70
2023-05-10T20:41:08.197Z,14.52
2023-05-10T20:44:10.743Z,14.66
2023-05-10T20:47:14.974Z,14.59
2023-05-10T20:50:17.764Z,14.56
2023-05-10T20:53:20.347Z,14.45
2023-05-10T20:56:23.135Z,14.50
2023-05-10T20:59:25.508Z,14.49
2023-05-10T21:02:27.845Z,14.39
2023-05-10T21:05:30.798Z,14.38
2023-05-10T21:08:33.274Z,14.35
2023-05-10T21:11:36.212Z,14.37
2023-05-10T21:14:38.558Z,14.35
2023-05-10T21:17:40.920Z,14.44
2023-05-10T21:20:43.237Z,14.34
2023-05-10T21:23:48.765Z,14.36
2023-05-10T21:26:51.116Z,14.39
2023-05-10T21:29:53.656Z,14.42
2023-05-10T21:32:59.799Z,14.28
2023-05-10T21:36:02.336Z,14.29
2023-05-10T21:39:04.580Z,14.34
2023-05-10T21:42:07.012Z,14.41
2023-05-10T21:45:09.551Z,14.33
2023-05-10T21:48:12.336Z,14.38
2023-05-10T21:51:14.858Z,14.38
2023-05-10T21:54:17.125Z,14.36
2023-05-10T21:57:19.759Z,14.38
2023-05-10T22:00:22.029Z,14.36
2023-05-10T22:03:24.465Z,14.39
2023-05-10T22:06:26.762Z,14.42
2023-05-10T22:09:29.756Z,14.33
2023-05-10T22:12:32.013Z,14.32
2023-05-10T22:15:36.332Z,14.27
2023-05-10T22:18:39.018Z,14.29
2023-05-10T22:21:41.469Z,14.28
2023-05-10T22:24:45.568Z,14.26
2023-05-10T22:27:47.947Z,14.12
2023-05-10T22:30:50.266Z,14.12
2023-05-10T22:33:52.563Z,14.10
2023-05-10T22:36:54.855Z,14.21
2023-05-10T22:39:57.185Z,14.12
2023-05-10T22:42:59.471Z,14.06
2023-05-10T22:46:04.843Z,14.06
2023-05-10T22:49:07.182Z,14.07
2023-05-10T22:52:09.795Z,14.01
2023-05-10T22:55:12.139Z,13.82
2023-05-10T22:58:14.467Z,13.59
2023-05-10T23:01:17.191Z,13.51
2023-05-10T23:04:19.849Z,13.43
2023-05-10T23:07:22.729Z,13.53
2023-05-10T23:10:25.139Z,13.40
2023-05-10T23:13:27.664Z,13.48
2023-05-10T23:16:30.655Z,13.73
2023-05-10T23:19:32.997Z,14.11
2023-05-10T23:22:35.241Z,14.14
2023-05-10T23:25:38.009Z,14.15
2023-05-10T23:28:40.326Z,14.03
2023-05-10T23:31:45.740Z,13.96
2023-05-10T23:34:48.024Z,13.87
2023-05-10T23:37:50.408Z,13.91
2023-05-10T23:40:52.693Z,13.85
2023-05-10T23:43:54.921Z,13.85
2023-05-10T23:46:57.192Z,13.69
2023-05-10T23:49:59.567Z,13.74
2023-05-10T23:53:04.346Z,13.88
2023-05-10T23:56:07.908Z,13.67
2023-05-10T23:59:10.417Z,13.62
